Time;durP1;ratioP1;P1;durP2;ratioP2;P2;SDS_P1;SDS_P2;PMS_P1;PMS_P2;Temp;Humidity;BMP_temperature;BMP_pressure;BME280_temperature;BME280_humidity;BME280_pressure;Samples;Min_cycle;Max_cycle;Signal;HPM_P1;HPM_P2
2022/07/21 00:02:00;;;;;;;8.75;4.03;;;;;;;23.42;55.03;96532.81;5031958;28;20052;-79
2022/07/21 00:04:29;;;;;;;6.38;4.05;;;;;;;23.32;54.38;96562.16;5033850;28;20044;-79
2022/07/21 00:06:58;;;;;;;9.35;3.70;;;;;;;23.12;54.48;96580.41;5033967;28;20515;-79
2022/07/21 00:09:25;;;;;;;6.40;4.05;;;;;;;23.04;54.69;96576.84;5032984;28;20133;-79
2022/07/21 00:11:51;;;;;;;7.50;3.28;;;;;;;23.00;54.71;96562.13;5033234;28;20539;-79
2022/07/21 00:14:18;;;;;;;7.32;3.80;;;;;;;23.06;54.99;96548.66;5032970;28;20441;-79
2022/07/21 00:16:46;;;;;;;6.88;4.03;;;;;;;22.82;56.17;96550.97;5033529;28;20049;-79
2022/07/21 00:19:12;;;;;;;6.40;3.40;;;;;;;22.95;55.59;96553.41;5032749;28;20493;-79
2022/07/21 00:21:39;;;;;;;5.60;3.67;;;;;;;22.97;55.32;96546.28;5033382;28;20058;-79
2022/07/21 00:24:06;;;;;;;5.03;3.58;;;;;;;23.05;55.32;96536.75;5031451;28;20045;-79
2022/07/21 00:26:32;;;;;;;7.32;3.53;;;;;;;23.13;55.39;96538.38;5033340;28;20052;-80
2022/07/21 00:28:59;;;;;;;6.65;3.72;;;;;;;23.18;55.17;96528.84;5033208;28;20041;-78
2022/07/21 00:31:25;;;;;;;5.25;3.15;;;;;;;23.24;54.78;96521.69;5032578;28;20048;-79
2022/07/21 00:33:54;;;;;;;5.57;3.63;;;;;;;23.26;55.41;96529.63;5033314;28;20045;-79
2022/07/21 00:36:21;;;;;;;6.10;3.60;;;;;;;23.27;54.83;96539.53;5032498;28;20053;-79
2022/07/21 00:38:48;;;;;;;7.20;3.40;;;;;;;23.23;55.20;96542.34;5033088;28;20049;-78
2022/07/21 00:41:15;;;;;;;7.18;3.72;;;;;;;23.06;55.38;96530.00;5032344;28;20044;-79
2022/07/21 00:43:42;;;;;;;9.45;3.90;;;;;;;23.15;55.38;96530.41;5032890;28;20037;-78
2022/07/21 00:46:08;;;;;;;5.35;3.47;;;;;;;23.06;55.48;96518.91;5032375;28;20045;-79
2022/07/21 00:48:55;;;;;;;6.60;3.45;;;;;;;23.10;55.41;96516.91;5032815;28;20045;-79
2022/07/21 00:51:21;;;;;;;4.10;3.08;;;;;;;23.14;55.54;96517.72;5014784;28;20103;-79
2022/07/21 00:53:48;;;;;;;6.97;3.40;;;;;;;23.17;55.50;96533.56;5012744;28;20049;-79
2022/07/21 00:56:15;;;;;;;5.22;3.40;;;;;;;23.12;55.71;96539.53;5012052;28;20046;-80
2022/07/21 00:58:42;;;;;;;5.45;3.08;;;;;;;23.08;55.24;96535.97;5008514;28;20057;-78
2022/07/21 01:01:10;;;;;;;6.35;3.58;;;;;;;23.03;55.16;96539.16;5012351;28;20046;-80
2022/07/21 01:03:37;;;;;;;6.88;3.50;;;;;;;23.00;55.42;96539.91;5012623;28;20045;-80
2022/07/21 01:06:05;;;;;;;6.50;4.35;;;;;;;22.93;55.70;96542.69;5012072;28;20104;-79
2022/07/21 01:08:32;;;;;;;4.28;3.30;;;;;;;22.91;55.93;96539.50;5012021;28;20093;-80
2022/07/21 01:10:59;;;;;;;5.32;3.22;;;;;;;22.92;55.83;96549.44;5011969;28;20124;-79
2022/07/21 01:13:25;;;;;;;9.73;3.55;;;;;;;22.78;56.11;96543.81;5010725;28;20046;-79
2022/07/21 01:15:52;;;;;;;5.55;3.25;;;;;;;22.52;56.56;96562.38;5012626;28;20065;-80
2022/07/21 01:18:19;;;;;;;8.25;3.53;;;;;;;22.32;57.74;96561.91;5012208;28;20038;-79
2022/07/21 01:20:53;;;;;;;5.57;3.40;;;;;;;22.11;58.81;96553.47;5012318;28;20049;-79
2022/07/21 01:23:21;;;;;;;7.45;3.40;;;;;;;21.72;60.55;96551.25;5011525;28;20049;-79
2022/07/21 01:25:48;;;;;;;8.10;3.72;;;;;;;21.57;61.02;96560.63;5012249;28;20053;-79
2022/07/21 01:28:15;;;;;;;7.80;3.92;;;;;;;21.36;62.03;96544.66;5017808;28;20049;-79
2022/07/21 01:30:41;;;;;;;5.85;3.30;;;;;;;21.51;61.77;96559.41;5011948;28;20057;-79
2022/07/21 01:33:08;;;;;;;8.82;3.92;;;;;;;21.32;62.56;96554.91;5011746;28;20050;-79
2022/07/21 01:35:34;;;;;;;8.15;3.53;;;;;;;21.12;63.66;96562.59;5012049;28;20041;-79
2022/07/21 01:38:01;;;;;;;6.75;3.55;;;;;;;21.22;63.64;96566.66;5011888;28;20509;-80
2022/07/21 01:43:13;;;;;;;9.43;4.00;;;;;;;20.83;65.87;96567.88;5011343;28;20052;-79
2022/07/21 01:45:41;;;;;;;10.07;3.97;;;;;;;21.01;65.38;96572.78;5011770;28;20038;-79
2022/07/21 01:48:07;;;;;;;4.43;3.50;;;;;;;21.05;65.25;96563.34;5011549;28;20041;-79
2022/07/21 01:50:34;;;;;;;5.55;3.63;;;;;;;21.22;64.74;96556.34;5011791;28;20053;-79
2022/07/21 01:53:00;;;;;;;5.70;3.83;;;;;;;21.28;64.71;96562.34;5011921;28;20060;-79
2022/07/21 01:55:30;;;;;;;5.70;4.05;;;;;;;21.11;65.43;96558.25;5011595;28;20046;-79
2022/07/21 01:57:57;;;;;;;6.53;3.88;;;;;;;21.10;65.44;96560.22;5015657;28;20055;-80
2022/07/21 02:00:23;;;;;;;7.32;4.20;;;;;;;21.05;65.77;96557.78;5011274;28;20378;-79
2022/07/21 02:02:50;;;;;;;6.47;4.10;;;;;;;21.20;65.21;96552.41;5011821;28;20049;-80
2022/07/21 02:05:17;;;;;;;6.63;3.75;;;;;;;21.28;64.93;96554.81;5011030;28;20073;-80
2022/07/21 02:07:43;;;;;;;5.07;3.70;;;;;;;21.32;64.96;96555.69;5011873;28;20057;-79
2022/07/21 02:10:10;;;;;;;6.95;4.20;;;;;;;21.24;65.32;96553.19;5010782;28;20521;-79
2022/07/21 02:12:38;;;;;;;6.13;4.20;;;;;;;21.24;65.47;96558.75;5011483;28;20073;-79
2022/07/21 02:15:05;;;;;;;4.72;3.67;;;;;;;21.36;64.90;96550.19;5010982;28;20041;-79
2022/07/21 02:17:32;;;;;;;6.15;3.58;;;;;;;21.27;65.34;96557.97;5011633;28;20049;-79
2022/07/21 02:19:58;;;;;;;5.70;3.60;;;;;;;21.29;65.58;96556.41;5011424;28;20542;-79
2022/07/21 02:22:25;;;;;;;7.03;4.00;;;;;;;21.32;65.60;96557.66;5010734;28;20038;-78
2022/07/21 02:24:51;;;;;;;5.25;4.20;;;;;;;21.28;65.68;96559.56;5010589;28;20053;-79
2022/07/21 02:27:18;;;;;;;4.93;3.58;;;;;;;21.34;65.33;96563.59;5010775;28;20053;-79
2022/07/21 02:29:46;;;;;;;8.32;3.67;;;;;;;21.37;65.45;96562.84;5014741;28;20050;-79
2022/07/21 02:32:12;;;;;;;5.63;3.75;;;;;;;21.43;65.46;96569.63;5010933;28;20042;-79
2022/07/21 02:34:39;;;;;;;5.13;3.97;;;;;;;21.38;65.67;96572.75;5011030;28;20720;-79
2022/07/21 02:37:05;;;;;;;6.47;4.10;;;;;;;21.30;66.07;96568.34;5010860;28;20038;-79
2022/07/21 02:39:34;;;;;;;6.28;4.43;;;;;;;21.29;66.41;96572.22;5010565;28;20489;-79
2022/07/21 02:42:01;;;;;;;6.53;4.10;;;;;;;21.20;67.02;96580.09;5010735;28;20420;-79
2022/07/21 02:44:30;;;;;;;4.93;3.83;;;;;;;21.18;67.38;96577.69;5010800;28;20069;-81
2022/07/21 02:46:57;;;;;;;5.88;4.20;;;;;;;21.16;67.57;96576.47;5011399;28;20049;-79
2022/07/21 02:49:24;;;;;;;5.70;3.88;;;;;;;21.07;67.97;96572.03;5010659;28;20049;-80
2022/07/21 02:51:50;;;;;;;6.70;4.25;;;;;;;21.11;68.21;96567.34;5011068;28;20050;-79
2022/07/21 02:54:17;;;;;;;6.32;4.28;;;;;;;21.18;67.78;96571.34;5010919;28;20042;-79
2022/07/21 02:56:43;;;;;;;7.30;4.15;;;;;;;21.29;67.61;96586.09;5011781;28;20516;-80
2022/07/21 02:59:10;;;;;;;5.82;4.30;;;;;;;21.24;67.91;96587.22;5023699;28;20057;-80
2022/07/21 03:01:36;;;;;;;6.72;4.28;;;;;;;21.17;68.36;96584.41;5031059;28;20049;-79
2022/07/21 03:04:05;;;;;;;7.53;4.78;;;;;;;21.04;69.10;96577.56;5030526;28;20049;-79
2022/07/21 03:06:32;;;;;;;7.22;4.57;;;;;;;20.94;69.38;96573.50;5030790;28;20045;-79
2022/07/21 03:08:59;;;;;;;7.28;4.88;;;;;;;20.99;69.58;96578.69;5030936;28;20121;-79
2022/07/21 03:11:25;;;;;;;7.68;5.05;;;;;;;20.94;69.68;96579.03;5030404;28;20041;-79
2022/07/21 03:13:52;;;;;;;7.45;4.90;;;;;;;20.97;69.60;96581.03;5030809;28;20045;-78
2022/07/21 03:16:19;;;;;;;6.28;4.65;;;;;;;21.05;69.11;96579.94;5030583;28;20046;-79
2022/07/21 03:18:45;;;;;;;5.72;4.50;;;;;;;21.21;68.85;96582.47;5031956;28;20060;-80
2022/07/21 03:21:13;;;;;;;6.35;4.57;;;;;;;21.28;68.54;96576.97;5031043;28;20045;-79
2022/07/21 03:23:45;;;;;;;8.40;4.05;;;;;;;21.34;68.12;96581.03;5031020;28;20033;-79
2022/07/21 03:26:12;;;;;;;6.13;4.60;;;;;;;21.50;67.79;96577.19;5030569;28;20053;-79
2022/07/21 03:28:38;;;;;;;5.53;4.28;;;;;;;21.56;67.53;96576.47;5028016;28;20050;-80
2022/07/21 03:31:05;;;;;;;7.18;4.15;;;;;;;21.69;67.72;96573.38;5031004;28;20624;-80
2022/07/21 03:33:32;;;;;;;5.00;4.20;;;;;;;21.67;67.07;96564.66;5030910;28;20060;-79
2022/07/21 03:35:59;;;;;;;4.88;4.07;;;;;;;21.75;66.99;96566.28;5031720;28;20048;-79
2022/07/21 03:38:30;;;;;;;6.13;4.28;;;;;;;21.80;66.42;96571.47;5034521;28;20041;-80
2022/07/21 03:40:56;;;;;;;5.10;4.15;;;;;;;21.85;66.42;96571.13;5034761;28;20057;-81
2022/07/21 03:43:23;;;;;;;7.68;4.63;;;;;;;21.86;66.51;96578.25;5033872;28;20049;-79
2022/07/21 03:45:51;;;;;;;6.85;4.85;;;;;;;21.76;66.47;96593.63;5034720;28;20044;-79
2022/07/21 03:48:18;;;;;;;7.70;5.07;;;;;;;21.85;66.77;96593.28;5034281;28;20048;-80
2022/07/21 03:50:44;;;;;;;7.72;5.05;;;;;;;21.78;66.72;96593.25;5034588;28;20507;-79
2022/07/21 03:53:11;;;;;;;7.05;4.93;;;;;;;21.67;67.12;96595.16;5033853;28;20053;-79
2022/07/21 03:55:39;;;;;;;6.75;4.90;;;;;;;21.61;67.42;96589.97;5034084;28;20061;-79
2022/07/21 03:58:07;;;;;;;6.25;4.70;;;;;;;21.65;67.65;96600.28;5031070;28;20045;-78
2022/07/21 04:00:36;;;;;;;8.57;5.25;;;;;;;21.63;67.36;96593.13;5014470;28;20405;-78
2022/07/21 04:03:04;;;;;;;8.90;5.00;;;;;;;21.40;68.57;96589.78;5013752;28;20152;-80
2022/07/21 04:05:30;;;;;;;7.95;5.20;;;;;;;21.52;68.14;96591.47;5014387;28;20640;-78
2022/07/21 04:07:58;;;;;;;7.90;5.30;;;;;;;21.40;68.95;96589.78;5014030;28;20050;-79
2022/07/21 04:10:27;;;;;;;9.48;5.13;;;;;;;21.49;68.50;96587.47;5013396;28;20041;-79
2022/07/21 04:12:56;;;;;;;7.95;5.40;;;;;;;21.51;68.56;96596.22;5014039;28;20750;-79
2022/07/21 04:15:23;;;;;;;6.88;5.35;;;;;;;21.53;68.43;96596.63;5013806;28;20052;-79
2022/07/21 04:17:50;;;;;;;6.57;5.25;;;;;;;21.62;68.45;96593.53;5013777;28;20077;-80
2022/07/21 04:20:17;;;;;;;7.65;5.18;;;;;;;21.68;68.42;96594.75;5013750;28;20050;-79
2022/07/21 04:22:45;;;;;;;7.55;6.05;;;;;;;21.63;68.32;96590.38;5013745;28;20045;-79
2022/07/21 04:25:13;;;;;;;9.30;6.05;;;;;;;21.61;68.69;96600.22;5013038;28;20053;-79
2022/07/21 04:27:40;;;;;;;10.82;5.32;;;;;;;21.63;68.60;96604.22;5016798;28;20045;-79
2022/07/21 04:30:11;;;;;;;7.13;5.57;;;;;;;21.63;68.88;96615.31;5013770;28;20049;-79
2022/07/21 04:32:38;;;;;;;7.47;4.90;;;;;;;21.78;68.40;96626.50;5013927;28;20046;-79
2022/07/21 04:35:05;;;;;;;8.15;5.82;;;;;;;21.78;68.77;96629.28;5012986;28;20049;-79
2022/07/21 04:37:32;;;;;;;9.38;5.75;;;;;;;21.83;69.18;96637.25;5013412;28;20053;-79
2022/07/21 04:39:59;;;;;;;9.63;5.20;;;;;;;21.73;69.51;96640.72;5013704;28;20409;-79
2022/07/21 04:42:25;;;;;;;8.07;5.35;;;;;;;21.89;69.65;96644.03;5013040;28;20053;-80
2022/07/21 04:44:52;;;;;;;10.25;4.55;;;;;;;21.87;69.71;96647.19;5013522;28;20053;-79
2022/07/21 04:47:20;;;;;;;7.63;5.32;;;;;;;21.80;70.23;96649.09;5012008;28;20073;-79
2022/07/21 04:49:46;;;;;;;9.63;6.13;;;;;;;21.75;71.13;96643.91;5013303;28;20046;-80
2022/07/21 04:52:13;;;;;;;9.80;6.10;;;;;;;21.81;71.30;96645.13;5012455;28;20053;-79
2022/07/21 04:54:39;;;;;;;10.93;6.40;;;;;;;21.91;71.25;96655.50;5013013;28;20048;-80
2022/07/21 04:57:06;;;;;;;10.73;7.30;;;;;;;21.93;71.64;96655.94;5014549;28;20053;-80
2022/07/21 04:59:33;;;;;;;8.50;6.68;;;;;;;21.86;71.78;96653.09;5032555;28;20136;-80
2022/07/21 05:02:01;;;;;;;8.32;6.55;;;;;;;21.92;72.49;96654.31;5032679;28;20050;-80
2022/07/21 05:04:29;;;;;;;10.35;7.97;;;;;;;21.91;72.61;96663.81;5031908;28;20405;-82
2022/07/21 05:06:56;;;;;;;12.48;8.10;;;;;;;21.74;73.52;96665.28;5032741;28;20049;-79
2022/07/21 05:09:22;;;;;;;10.45;8.07;;;;;;;21.64;74.19;96674.31;5032009;28;20050;-79
2022/07/21 05:11:49;;;;;;;11.95;8.50;;;;;;;21.73;74.38;96674.78;5032253;28;20051;-79
2022/07/21 05:14:15;;;;;;;10.77;8.77;;;;;;;21.68;74.81;96679.88;5031878;28;20061;-80
2022/07/21 05:16:42;;;;;;;11.90;9.60;;;;;;;21.71;74.33;96681.88;5032010;28;20057;-79
2022/07/21 05:19:09;;;;;;;12.95;10.50;;;;;;;21.33;76.29;96681.13;5031633;28;20059;-79
2022/07/21 05:21:37;;;;;;;11.80;10.40;;;;;;;21.33;76.51;96686.66;5032093;28;20455;-79
2022/07/21 05:24:04;;;;;;;15.05;10.60;;;;;;;21.36;76.38;96691.47;5031236;28;20045;-79
2022/07/21 05:26:30;;;;;;;13.82;9.95;;;;;;;21.26;76.97;96692.09;5032004;28;20045;-79
2022/07/21 05:28:57;;;;;;;11.82;9.98;;;;;;;21.18;77.52;96690.44;5031735;28;20057;-80
2022/07/21 05:31:23;;;;;;;14.98;10.00;;;;;;;21.06;78.28;96689.50;5033302;28;20037;-80
2022/07/21 05:33:50;;;;;;;16.23;9.73;;;;;;;21.15;77.79;96688.44;5032743;28;20394;-79
2022/07/21 05:36:18;;;;;;;16.02;11.02;;;;;;;21.20;77.50;96693.63;5032125;28;20057;-80
2022/07/21 05:38:46;;;;;;;14.95;10.48;;;;;;;21.33;76.92;96689.44;5031893;28;20492;-79
2022/07/21 05:41:12;;;;;;;14.90;10.52;;;;;;;21.34;76.92;96691.03;5031698;28;20050;-79
2022/07/21 05:43:39;;;;;;;13.50;10.82;;;;;;;21.21;78.00;96693.25;5032319;28;20061;-79
2022/07/21 05:46:05;;;;;;;16.15;10.23;;;;;;;21.31;78.02;96692.59;5031811;28;20050;-79
2022/07/21 05:48:32;;;;;;;14.73;10.95;;;;;;;21.22;78.14;96699.56;5031738;28;20489;-75
2022/07/21 05:50:58;;;;;;;19.90;11.60;;;;;;;20.94;79.09;96695.31;5031429;28;20497;-75
2022/07/21 05:53:25;;;;;;;19.35;11.82;;;;;;;20.77;80.03;96695.88;5030928;28;20048;-75
2022/07/21 05:55:53;;;;;;;19.05;12.20;;;;;;;20.83;80.18;96702.69;5031727;28;20730;-75
2022/07/21 05:58:23;;;;;;;16.60;11.73;;;;;;;21.00;79.40;96702.09;5030693;28;20046;-75
2022/07/21 06:01:07;;;;;;;14.65;11.38;;;;;;;21.04;79.05;96705.72;5031166;28;20121;-75
2022/07/21 06:03:34;;;;;;;13.60;11.20;;;;;;;21.00;79.49;96702.09;5031379;28;20045;-75
2022/07/21 06:06:01;;;;;;;15.73;11.00;;;;;;;21.12;79.36;96717.66;5031152;28;20045;-75
2022/07/21 06:08:27;;;;;;;16.58;11.60;;;;;;;20.80;79.34;96712.53;5031165;28;20424;-75
2022/07/21 06:10:55;;;;;;;14.98;10.68;;;;;;;21.00;78.63;96718.72;5031286;28;20050;-75
2022/07/21 06:13:22;;;;;;;21.65;11.15;;;;;;;21.00;78.78;96715.94;5030291;28;20053;-75
2022/07/21 06:15:48;;;;;;;18.02;11.02;;;;;;;20.83;78.25;96727.59;5030364;28;20054;-75
2022/07/21 06:18:15;;;;;;;14.55;10.52;;;;;;;20.77;79.33;96729.09;5030750;28;20501;-75
2022/07/21 06:20:42;;;;;;;17.27;11.85;;;;;;;20.71;79.18;96733.34;5031224;28;20104;-75
2022/07/21 06:23:09;;;;;;;15.68;11.05;;;;;;;20.70;79.99;96731.75;5030163;28;20045;-75
2022/07/21 06:25:35;;;;;;;15.65;10.82;;;;;;;20.90;79.06;96738.75;5031170;28;20045;-75
2022/07/21 06:28:03;;;;;;;16.25;11.38;;;;;;;21.01;79.05;96739.69;5030368;28;20068;-76
2022/07/21 06:30:30;;;;;;;13.63;10.63;;;;;;;20.91;79.44;96732.03;5030869;28;20049;-75
2022/07/21 06:32:57;;;;;;;15.88;11.75;;;;;;;20.98;79.58;96734.88;5031010;28;20509;-75
2022/07/21 06:35:23;;;;;;;14.88;10.52;;;;;;;21.07;78.70;96740.94;5030582;28;20038;-75
2022/07/21 06:37:50;;;;;;;17.83;10.52;;;;;;;21.17;77.36;96752.53;5030870;28;20527;-75
2022/07/21 06:40:16;;;;;;;17.80;11.30;;;;;;;21.00;78.26;96742.84;5030099;28;20049;-75
2022/07/21 06:42:43;;;;;;;13.30;10.05;;;;;;;21.04;78.65;96744.47;5030807;28;20049;-75
2022/07/21 06:45:11;;;;;;;17.30;10.50;;;;;;;21.03;78.64;96745.63;5030071;28;20052;-75
2022/07/21 06:47:38;;;;;;;16.27;10.23;;;;;;;21.11;77.62;96750.09;5030686;28;20045;-75
2022/07/21 06:50:05;;;;;;;25.70;11.52;;;;;;;21.04;78.03;96750.03;5030063;28;20049;-76
2022/07/21 06:52:33;;;;;;;15.25;10.38;;;;;;;20.87;78.96;96756.09;5030621;28;20042;-75
2022/07/21 06:54:59;;;;;;;18.85;10.82;;;;;;;20.83;79.48;96766.34;5030655;28;20056;-75
2022/07/21 06:57:26;;;;;;;15.40;10.77;;;;;;;20.89;78.23;96769.59;5025112;28;20732;-75
2022/07/21 06:59:53;;;;;;;14.43;10.50;;;;;;;20.94;77.88;96770.06;5010690;28;20050;-76
2022/07/21 07:02:21;;;;;;;17.65;10.70;;;;;;;20.79;78.63;96771.81;5010217;28;20050;-75
2022/07/21 07:04:47;;;;;;;16.92;10.93;;;;;;;20.73;78.92;96783.59;5010550;28;20044;-75
2022/07/21 07:07:14;;;;;;;13.55;10.43;;;;;;;20.77;79.38;96770.59;5010303;28;20061;-75
2022/07/21 07:09:41;;;;;;;14.60;9.95;;;;;;;20.91;78.56;96779.09;5010594;28;20046;-75
2022/07/21 07:12:08;;;;;;;15.32;9.45;;;;;;;20.89;78.94;96780.66;5009482;28;20100;-77
2022/07/21 07:14:36;;;;;;;13.63;10.52;;;;;;;21.02;77.52;96785.56;5010463;28;20042;-75
2022/07/21 07:17:04;;;;;;;16.10;10.25;;;;;;;20.92;77.56;96785.44;5009998;28;20050;-76
2022/07/21 07:19:32;;;;;;;17.70;10.48;;;;;;;20.83;78.49;96783.75;5010639;28;20045;-75
2022/07/21 07:21:59;;;;;;;15.18;10.70;;;;;;;20.81;78.57;96790.81;5010390;28;20041;-75
2022/07/21 07:24:25;;;;;;;14.20;10.60;;;;;;;20.87;78.69;96789.31;5009842;28;20037;-76
2022/07/21 07:26:52;;;;;;;12.23;9.98;;;;;;;20.87;78.72;96788.53;5010971;28;20449;-75
2022/07/21 07:29:18;;;;;;;12.15;10.00;;;;;;;20.84;78.40;96790.09;5029594;28;20037;-75
2022/07/21 07:31:45;;;;;;;15.05;11.05;;;;;;;20.92;78.33;96789.00;5030396;28;20041;-75
2022/07/21 07:34:11;;;;;;;14.27;10.40;;;;;;;20.87;78.41;96783.00;5030042;28;20049;-75
2022/07/21 07:36:39;;;;;;;16.02;10.95;;;;;;;21.06;78.46;96780.88;5030533;28;20045;-75
2022/07/21 07:39:06;;;;;;;14.50;10.20;;;;;;;21.02;77.65;96784.78;5030125;28;20382;-76
2022/07/21 07:41:32;;;;;;;14.73;10.13;;;;;;;21.05;77.80;96779.28;5030413;28;20041;-75
2022/07/21 07:44:00;;;;;;;13.00;10.20;;;;;;;21.21;77.54;96786.63;5030400;28;20106;-75
2022/07/21 07:46:27;;;;;;;13.80;10.55;;;;;;;21.22;76.41;96788.19;5030235;28;20041;-75
2022/07/21 07:48:53;;;;;;;13.00;9.57;;;;;;;21.26;76.34;96789.03;5029767;28;20045;-75
2022/07/21 07:51:20;;;;;;;14.77;10.25;;;;;;;21.33;76.01;96783.63;5029159;28;20046;-75
2022/07/21 07:53:48;;;;;;;16.27;10.05;;;;;;;21.34;76.21;96790.75;5029910;28;20501;-76
2022/07/21 07:56:15;;;;;;;16.45;11.32;;;;;;;21.33;75.29;96789.16;5029290;28;20042;-75
2022/07/21 07:58:41;;;;;;;16.00;10.63;;;;;;;21.32;76.32;96782.03;5029556;28;20056;-75
2022/07/21 08:01:09;;;;;;;14.45;9.57;;;;;;;21.44;75.58;96790.06;5029220;28;20045;-75
2022/07/21 08:03:36;;;;;;;12.90;9.63;;;;;;;21.40;75.16;96794.78;5029779;28;20042;-76
2022/07/21 08:06:04;;;;;;;11.98;9.73;;;;;;;21.36;75.33;96783.66;5029076;28;20042;-75
2022/07/21 08:08:31;;;;;;;11.77;9.65;;;;;;;21.54;74.73;96789.41;5029636;28;20045;-75
2022/07/21 08:10:59;;;;;;;12.63;10.05;;;;;;;21.59;74.11;96796.56;5029466;28;20133;-75
2022/07/21 08:13:26;;;;;;;14.60;10.02;;;;;;;21.54;75.15;96789.41;5029061;28;20041;-75
2022/07/21 08:15:53;;;;;;;13.52;9.80;;;;;;;21.65;74.22;96791.50;5029460;28;20049;-75
2022/07/21 08:18:20;;;;;;;14.90;10.85;;;;;;;21.79;73.51;96788.88;5029066;28;20497;-76
2022/07/21 08:20:47;;;;;;;13.90;10.55;;;;;;;21.77;73.99;96785.66;5029524;28;20037;-76
2022/07/21 08:23:15;;;;;;;16.55;9.57;;;;;;;22.00;72.75;96793.84;5031212;28;20049;-75
2022/07/21 08:25:43;;;;;;;17.23;10.60;;;;;;;21.87;72.78;96796.91;5033042;28;20052;-75
2022/07/21 08:28:12;;;;;;;13.70;10.18;;;;;;;21.74;73.00;96792.00;5032465;28;20420;-75
2022/07/21 08:30:39;;;;;;;15.70;10.07;;;;;;;21.63;74.14;96802.97;5033174;28;20120;-75
2022/07/21 08:33:06;;;;;;;12.25;10.00;;;;;;;21.89;72.03;96804.81;5032559;28;20504;-75
2022/07/21 08:35:34;;;;;;;13.23;10.48;;;;;;;21.86;72.60;96800.81;5033118;28;20053;-75
2022/07/21 08:38:02;;;;;;;11.77;9.48;;;;;;;21.84;72.59;96802.41;5032818;28;20046;-75
2022/07/21 08:40:31;;;;;;;13.52;10.00;;;;;;;21.88;72.89;96797.69;5032669;28;20037;-75
2022/07/21 08:42:58;;;;;;;13.07;10.20;;;;;;;21.86;73.25;96800.03;5032748;28;20054;-76
2022/07/21 08:45:27;;;;;;;16.25;11.05;;;;;;;21.79;73.94;96799.97;5032264;28;20500;-75
2022/07/21 08:47:55;;;;;;;12.68;10.05;;;;;;;21.93;73.56;96793.78;5032780;28;20076;-75
2022/07/21 08:50:24;;;;;;;16.02;10.20;;;;;;;22.02;73.04;96792.25;5031999;28;20057;-75
2022/07/21 08:52:50;;;;;;;14.80;11.18;;;;;;;21.94;72.37;96790.63;5032658;28;20041;-75
2022/07/21 08:55:17;;;;;;;11.63;10.02;;;;;;;22.04;73.13;96797.44;5032103;28;20056;-76
2022/07/21 08:57:44;;;;;;;15.00;10.10;;;;;;;22.19;72.18;96801.97;5032090;28;20041;-75
2022/07/21 09:00:11;;;;;;;15.48;11.23;;;;;;;22.11;71.81;96803.88;5031870;28;20041;-75
2022/07/21 09:02:40;;;;;;;12.60;10.52;;;;;;;22.25;72.56;96797.66;5032317;28;20052;-75
2022/07/21 09:05:08;;;;;;;14.90;10.48;;;;;;;22.27;71.67;96798.06;5031651;28;20037;-76
2022/07/21 09:07:48;;;;;;;19.38;10.60;;;;;;;22.31;71.62;96806.44;5032252;28;20069;-75
2022/07/21 09:10:15;;;;;;;15.73;10.75;;;;;;;22.31;71.47;96810.00;5031881;28;20052;-76
2022/07/21 09:12:50;;;;;;;14.65;10.20;;;;;;;22.17;72.12;96809.06;5032267;28;20045;-77
2022/07/21 09:15:19;;;;;;;13.35;10.38;;;;;;;22.20;71.42;96811.09;5031586;28;20505;-75
2022/07/21 09:18:03;;;;;;;11.77;8.90;;;;;;;22.37;71.53;96808.44;5031940;28;20150;-76
2022/07/21 09:20:30;;;;;;;10.48;8.98;;;;;;;22.44;70.41;96807.72;5031452;28;20717;-74
2022/07/21 09:23:05;;;;;;;12.10;9.77;;;;;;;22.31;70.16;96803.66;5031925;28;20054;-75
2022/07/21 09:25:40;;;;;;;12.63;10.00;;;;;;;22.13;70.92;96807.06;5031736;28;20038;-75
2022/07/21 09:28:15;;;;;;;12.88;9.88;;;;;;;22.08;70.94;96807.41;5031376;28;20056;-74
2022/07/21 09:30:54;;;;;;;12.30;9.77;;;;;;;22.16;71.69;96807.47;5031922;28;20041;-75
2022/07/21 09:33:25;;;;;;;11.48;9.18;;;;;;;22.09;70.99;96811.75;5031094;28;20051;-75
2022/07/21 09:36:00;;;;;;;13.02;9.23;;;;;;;22.16;70.96;96811.03;5031719;28;20052;-75
2022/07/21 09:38:28;;;;;;;12.18;8.50;;;;;;;22.32;69.65;96808.00;5031246;28;20044;-75
2022/07/21 09:40:56;;;;;;;21.17;8.68;;;;;;;22.55;67.55;96807.78;5031548;28;20041;-75
2022/07/21 09:43:34;;;;;;;11.52;7.78;;;;;;;22.70;67.03;96814.25;5031184;28;20052;-75
2022/07/21 09:46:03;;;;;;;12.75;7.32;;;;;;;22.64;66.92;96811.81;5031494;28;20481;-75
2022/07/21 09:48:32;;;;;;;8.77;7.60;;;;;;;22.52;67.00;96808.56;5031269;28;20045;-75
2022/07/21 09:51:20;;;;;;;13.02;7.93;;;;;;;22.60;66.73;96812.97;5031440;28;20045;-75
2022/07/21 09:53:51;;;;;;;12.93;8.07;;;;;;;22.75;66.92;96813.88;5031454;28;20103;-75
2022/07/21 09:56:19;;;;;;;9.27;7.57;;;;;;;22.81;66.53;96815.09;5030714;28;20076;-74
2022/07/21 09:58:46;;;;;;;10.60;7.72;;;;;;;22.78;66.31;96815.91;5031212;28;20048;-75
2022/07/21 10:01:13;;;;;;;12.50;7.93;;;;;;;22.66;66.60;96814.25;5030848;28;20042;-75
2022/07/21 10:03:45;;;;;;;11.50;7.90;;;;;;;22.76;67.42;96816.28;5030943;28;20508;-75
2022/07/21 10:06:12;;;;;;;10.73;7.55;;;;;;;22.74;67.62;96815.06;5030642;28;20068;-75
2022/07/21 10:08:39;;;;;;;12.40;8.50;;;;;;;22.59;67.71;96816.94;5031390;28;20042;-74
2022/07/21 10:11:06;;;;;;;8.57;7.68;;;;;;;22.74;67.37;96818.63;5030595;28;20049;-75
2022/07/21 10:13:33;;;;;;;10.75;7.85;;;;;;;22.87;67.43;96813.59;5030978;28;20041;-75
2022/07/21 10:16:01;;;;;;;12.10;8.23;;;;;;;22.78;66.99;96815.91;5030983;28;20053;-75
2022/07/21 10:18:31;;;;;;;13.88;8.60;;;;;;;22.58;67.72;96818.91;5030574;28;20033;-75
2022/07/21 10:21:05;;;;;;;10.88;8.18;;;;;;;22.61;69.25;96823.72;5030850;28;20052;-74
2022/07/21 10:23:38;;;;;;;9.95;8.02;;;;;;;22.78;68.24;96821.44;5030546;28;20045;-74
2022/07/21 10:26:06;;;;;;;10.52;9.00;;;;;;;22.77;68.48;96822.63;5030350;28;20500;-75
2022/07/21 10:28:33;;;;;;;9.93;8.50;;;;;;;22.87;66.83;96825.50;5016758;28;20042;-75
2022/07/21 10:31:13;;;;;;;11.48;8.70;;;;;;;22.63;67.53;96821.34;5010735;28;20479;-76
2022/07/21 10:33:54;;;;;;;10.73;9.25;;;;;;;22.66;67.64;96820.59;5010962;28;20064;-74
2022/07/21 10:36:47;;;;;;;12.68;9.25;;;;;;;22.59;67.61;96830.81;5010319;28;20046;-76
2022/07/21 10:39:23;;;;;;;13.13;10.02;;;;;;;22.59;67.90;96825.28;5010294;28;20054;-76
2022/07/21 10:41:52;;;;;;;13.35;9.90;;;;;;;22.62;67.87;96828.09;5010939;28;20061;-76
2022/07/21 10:44:41;;;;;;;14.02;10.77;;;;;;;22.58;68.20;96824.47;5010054;28;20046;-76
2022/07/21 10:47:09;;;;;;;11.98;10.02;;;;;;;22.74;66.75;96824.19;5009414;28;20053;-76
2022/07/21 10:49:52;;;;;;;12.65;9.90;;;;;;;22.87;66.69;96819.13;5010816;28;20045;-76
2022/07/21 10:52:56;;;;;;;11.27;9.57;;;;;;;22.77;68.69;96815.09;5010058;28;20038;-76
2022/07/21 10:55:27;;;;;;;11.73;8.55;;;;;;;22.81;67.96;96827.03;5009703;28;20053;-76
2022/07/21 10:58:14;;;;;;;12.85;9.88;;;;;;;22.92;67.74;96830.72;5019288;28;20512;-76
2022/07/21 11:00:46;;;;;;;11.25;9.05;;;;;;;22.95;67.11;96831.91;5029979;28;20131;-76
2022/07/21 11:03:19;;;;;;;14.17;10.17;;;;;;;22.60;68.64;96833.22;5029596;28;20053;-76
2022/07/21 11:06:23;;;;;;;15.88;11.25;;;;;;;22.51;69.01;96829.19;5029970;28;20048;-76
2022/07/21 11:08:51;;;;;;;14.25;11.30;;;;;;;22.30;69.62;96827.03;5029706;28;20045;-76
2022/07/21 11:11:21;;;;;;;11.57;9.88;;;;;;;22.46;69.07;96822.00;5029416;28;20041;-76
2022/07/21 11:14:06;;;;;;;14.82;10.48;;;;;;;22.37;69.24;96827.88;5030015;28;20053;-76
2022/07/21 11:16:59;;;;;;;15.00;11.05;;;;;;;22.28;69.19;96819.06;5029976;28;20037;-76
2022/07/21 11:19:40;;;;;;;12.75;10.40;;;;;;;22.49;69.08;96817.66;5029488;28;20072;-76
2022/07/21 11:22:12;;;;;;;15.55;11.40;;;;;;;22.43;69.16;96819.19;5029418;28;20059;-76
2022/07/21 11:24:40;;;;;;;16.75;11.82;;;;;;;22.23;70.44;96818.63;5029613;28;20046;-76
2022/07/21 11:27:11;;;;;;;18.25;12.40;;;;;;;22.09;71.21;96816.50;5029249;28;20045;-77
2022/07/21 11:29:40;;;;;;;15.55;11.02;;;;;;;22.16;70.29;96810.25;5030006;28;20132;-77
2022/07/21 11:32:07;;;;;;;15.55;12.10;;;;;;;22.09;70.67;96814.53;5029408;28;20052;-77
2022/07/21 11:34:46;;;;;;;12.32;10.85;;;;;;;22.23;70.26;96813.09;5029780;28;20046;-76
2022/07/21 11:37:14;;;;;;;13.85;10.95;;;;;;;22.30;70.55;96813.97;5029122;28;20045;-76